Time;durP1;ratioP1;P1;durP2;ratioP2;P2;SDS_P1;SDS_P2;PMS_P1;PMS_P2;Temp;Humidity;BMP_temperature;BMP_pressure;BME280_temperature;BME280_humidity;BME280_pressure;Samples;Min_cycle;Max_cycle;Signal;HPM_P1;HPM_P2
2021/03/02 00:02:04;;;;;;;81.80;41.28;;;4.00;91.80;;;;;;5051139;28;20072;-42
2021/03/02 00:04:30;;;;;;;87.05;42.15;;;4.00;92.00;;;;;;5045236;28;20049;-44
2021/03/02 00:06:56;;;;;;;96.13;44.17;;;4.00;92.00;;;;;;5044245;28;20056;-43
2021/03/02 00:09:23;;;;;;;79.65;40.55;;;3.90;92.10;;;;;;5037566;28;20893;-42
2021/03/02 00:11:50;;;;;;;91.35;44.35;;;3.90;92.10;;;;;;5043293;28;20041;-47
2021/03/02 00:14:17;;;;;;;91.53;42.45;;;3.90;92.00;;;;;;5050320;28;20686;-45
2021/03/02 00:16:50;;;;;;;90.20;42.13;;;3.90;92.10;;;;;;5048106;28;20053;-42
2021/03/02 00:19:18;;;;;;;85.38;41.33;;;3.90;92.40;;;;;;5045710;28;20051;-42
2021/03/02 00:21:55;;;;;;;90.03;41.83;;;3.90;92.30;;;;;;5045054;28;20033;-45
2021/03/02 00:24:44;;;;;;;89.43;42.47;;;3.90;92.30;;;;;;5044727;28;20405;-44
2021/03/02 00:27:29;;;;;;;100.32;42.40;;;3.90;92.40;;;;;;5033993;28;20547;-44
2021/03/02 00:29:56;;;;;;;90.68;42.47;;;3.90;92.40;;;;;;5045263;28;20076;-45
2021/03/02 00:32:23;;;;;;;91.85;40.85;;;3.90;92.30;;;;;;5044618;28;20041;-45
2021/03/02 00:34:49;;;;;;;89.47;41.58;;;3.90;92.40;;;;;;5051223;28;20037;-43
2021/03/02 00:37:16;;;;;;;87.68;41.15;;;3.90;92.40;;;;;;5044620;28;20463;-45
2021/03/02 00:39:42;;;;;;;90.40;42.88;;;3.80;92.30;;;;;;5044793;28;20052;-45
2021/03/02 00:42:08;;;;;;;87.68;41.05;;;3.80;92.10;;;;;;5049282;28;20049;-44
2021/03/02 00:44:34;;;;;;;93.47;42.25;;;3.80;92.40;;;;;;5044615;28;20053;-42
2021/03/02 00:47:01;;;;;;;94.22;42.78;;;3.70;92.30;;;;;;5027646;28;20080;-43
2021/03/02 00:49:27;;;;;;;92.35;44.53;;;3.70;92.40;;;;;;5048000;28;20055;-43
2021/03/02 00:51:53;;;;;;;91.80;42.65;;;3.70;92.50;;;;;;5045779;28;20053;-44
2021/03/02 00:54:19;;;;;;;99.57;43.40;;;3.70;92.40;;;;;;5045664;28;20643;-43
2021/03/02 00:56:45;;;;;;;96.75;43.53;;;3.60;92.50;;;;;;5045543;28;20114;-44
2021/03/02 00:59:17;;;;;;;93.55;42.70;;;3.60;92.40;;;;;;5044947;28;20833;-42
2021/03/02 01:01:43;;;;;;;101.35;42.97;;;3.60;92.40;;;;;;5047605;28;20048;-42
2021/03/02 01:04:09;;;;;;;94.82;43.95;;;3.60;92.50;;;;;;5045872;28;20163;-44
2021/03/02 01:06:35;;;;;;;102.65;44.63;;;3.60;92.20;;;;;;5032553;28;20509;-45
2021/03/02 01:09:01;;;;;;;90.55;42.85;;;3.60;92.60;;;;;;5046731;28;20045;-45
2021/03/02 01:11:27;;;;;;;75.55;32.50;;;3.60;92.60;;;;;;5045153;28;20040;-44
2021/03/02 01:13:54;;;;;;;109.47;45.15;;;3.60;92.50;;;;;;5047482;28;20091;-45
2021/03/02 01:16:20;;;;;;;102.13;43.63;;;3.60;92.60;;;;;;5045743;28;20057;-43
2021/03/02 01:18:45;;;;;;;103.57;42.08;;;3.60;92.70;;;;;;5044575;28;20044;-48
2021/03/02 01:21:12;;;;;;;86.85;40.58;;;3.50;92.60;;;;;;5027759;28;20587;-46
2021/03/02 01:23:38;;;;;;;91.80;41.42;;;3.60;92.40;;;;;;5045311;28;20064;-44
2021/03/02 01:26:04;;;;;;;88.25;40.85;;;3.60;92.50;;;;;;5044939;28;20064;-47
2021/03/02 01:28:30;;;;;;;95.05;43.47;;;3.60;92.60;;;;;;5042779;28;20174;-45
2021/03/02 01:30:56;;;;;;;85.60;38.83;;;3.50;92.40;;;;;;5050003;28;21502;-46
2021/03/02 01:33:21;;;;;;;84.50;36.97;;;3.60;92.50;;;;;;5051973;28;20037;-46
2021/03/02 01:35:47;;;;;;;100.07;39.72;;;3.60;92.50;;;;;;5044277;28;20153;-47
2021/03/02 01:38:13;;;;;;;96.45;43.08;;;3.50;92.60;;;;;;5043784;28;20064;-48
2021/03/02 01:40:39;;;;;;;94.65;41.97;;;3.50;92.50;;;;;;5043344;28;20052;-46
2021/03/02 01:43:05;;;;;;;117.35;42.65;;;3.50;92.50;;;;;;5027273;28;20048;-45
2021/03/02 01:45:31;;;;;;;89.47;40.70;;;3.50;92.60;;;;;;5035192;28;20087;-46
2021/03/02 01:47:57;;;;;;;95.30;39.22;;;3.50;92.40;;;;;;5043916;28;20056;-44
2021/03/02 01:50:25;;;;;;;89.18;38.40;;;3.50;92.70;;;;;;5047845;28;20049;-44
2021/03/02 01:52:51;;;;;;;88.05;38.30;;;3.40;92.50;;;;;;5048550;28;20064;-48
2021/03/02 01:55:18;;;;;;;101.18;41.63;;;3.50;92.60;;;;;;5043518;28;20136;-44
2021/03/02 01:57:44;;;;;;;92.93;40.28;;;3.40;92.50;;;;;;5044891;28;20037;-48
2021/03/02 02:00:26;;;;;;;87.95;39.28;;;3.40;92.70;;;;;;5044130;28;20045;-44
2021/03/02 02:02:56;;;;;;;88.20;40.08;;;3.40;92.90;;;;;;5046723;28;20122;-46
2021/03/02 02:05:24;;;;;;;113.82;41.42;;;3.40;92.80;;;;;;5048162;28;20037;-47
2021/03/02 02:08:02;;;;;;;101.72;39.67;;;3.40;92.80;;;;;;5048430;28;20045;-46
2021/03/02 02:10:35;;;;;;;88.65;39.35;;;3.40;92.70;;;;;;5045499;28;20049;-45
2021/03/02 02:13:36;;;;;;;89.38;39.85;;;3.40;92.70;;;;;;5051291;28;20396;-44
2021/03/02 02:16:07;;;;;;;88.55;38.63;;;3.30;92.60;;;;;;5044577;28;20045;-44
2021/03/02 02:18:34;;;;;;;80.28;38.95;;;3.40;92.50;;;;;;5034415;28;20084;-44
2021/03/02 02:21:06;;;;;;;85.90;41.22;;;3.40;92.70;;;;;;5027003;28;20163;-47
2021/03/02 02:23:38;;;;;;;83.05;38.88;;;3.30;92.50;;;;;;5044169;28;20446;-43
2021/03/02 02:26:29;;;;;;;72.25;32.35;;;3.30;92.40;;;;;;5049955;28;20053;-43
2021/03/02 02:28:57;;;;;;;93.57;42.97;;;3.30;92.50;;;;;;5043302;28;20041;-46
2021/03/02 02:31:26;;;;;;;87.30;40.45;;;3.20;92.50;;;;;;5046003;28;20152;-44
2021/03/02 02:33:53;;;;;;;85.13;40.65;;;3.20;92.40;;;;;;5044255;28;20056;-45
2021/03/02 02:36:20;;;;;;;84.93;41.10;;;3.20;92.40;;;;;;5043504;28;20052;-47
2021/03/02 02:38:56;;;;;;;93.90;41.22;;;3.10;92.50;;;;;;5046485;28;20037;-43
2021/03/02 02:41:23;;;;;;;89.65;40.63;;;3.10;92.60;;;;;;5038847;28;20516;-46
2021/03/02 02:43:52;;;;;;;99.68;43.15;;;3.00;92.40;;;;;;5051085;28;20084;-43
2021/03/02 02:46:20;;;;;;;95.82;42.25;;;3.00;92.50;;;;;;5033193;28;20060;-45
2021/03/02 02:48:49;;;;;;;83.90;39.88;;;3.00;92.60;;;;;;5043144;28;20051;-42
2021/03/02 02:51:15;;;;;;;92.30;42.42;;;3.00;92.70;;;;;;5043648;28;20083;-43
2021/03/02 02:53:43;;;;;;;82.57;40.67;;;2.90;92.70;;;;;;5048076;28;20049;-45
2021/03/02 02:56:11;;;;;;;91.25;41.80;;;2.90;92.60;;;;;;5029364;28;20045;-45
2021/03/02 02:58:40;;;;;;;89.75;39.10;;;2.90;92.80;;;;;;5022449;28;20044;-44
2021/03/02 03:01:09;;;;;;;88.65;40.70;;;2.80;92.90;;;;;;5047196;28;20878;-47
2021/03/02 03:03:37;;;;;;;85.57;38.17;;;2.80;92.90;;;;;;5046606;28;20098;-45
2021/03/02 03:06:07;;;;;;;93.78;42.15;;;2.80;92.90;;;;;;5047824;28;20455;-43
2021/03/02 03:08:34;;;;;;;108.18;43.75;;;2.80;92.70;;;;;;5052548;28;20037;-43
2021/03/02 03:11:02;;;;;;;90.82;39.40;;;2.80;92.80;;;;;;5047173;28;20273;-42
2021/03/02 03:13:35;;;;;;;113.85;44.47;;;2.80;92.80;;;;;;5048858;28;20041;-43
2021/03/02 03:16:04;;;;;;;98.28;41.47;;;2.80;92.90;;;;;;5034697;28;20147;-47
2021/03/02 03:18:35;;;;;;;98.47;40.28;;;2.80;93.10;;;;;;5047463;28;20055;-44
2021/03/02 03:21:02;;;;;;;99.75;42.90;;;2.70;93.00;;;;;;5038989;28;20163;-42
2021/03/02 03:23:30;;;;;;;94.65;41.03;;;2.80;93.10;;;;;;5054981;28;20095;-49
2021/03/02 03:25:55;;;;;;;97.35;41.03;;;2.90;93.20;;;;;;5047253;28;20772;-46
2021/03/02 03:28:24;;;;;;;99.60;42.67;;;2.90;93.20;;;;;;5046390;28;20048;-44
2021/03/02 03:30:50;;;;;;;88.93;39.08;;;2.80;93.20;;;;;;5037829;28;20161;-43
2021/03/02 03:33:18;;;;;;;104.07;43.13;;;2.90;93.40;;;;;;5046803;28;20102;-46
2021/03/02 03:35:45;;;;;;;100.07;42.75;;;2.90;93.30;;;;;;5052148;28;20227;-46
2021/03/02 03:38:11;;;;;;;100.07;43.22;;;2.90;93.20;;;;;;5042774;28;20088;-49
2021/03/02 03:40:37;;;;;;;104.20;40.25;;;2.90;93.30;;;;;;5042820;28;20049;-47
2021/03/02 03:43:03;;;;;;;110.05;44.00;;;2.90;93.20;;;;;;5052205;28;20099;-48
2021/03/02 03:45:29;;;;;;;89.85;40.92;;;2.90;93.40;;;;;;5054255;28;20037;-47
2021/03/02 03:47:56;;;;;;;92.78;39.90;;;2.90;93.20;;;;;;5041961;28;20593;-44
2021/03/02 03:50:22;;;;;;;104.75;40.63;;;2.90;93.20;;;;;;5030275;28;20127;-43
2021/03/02 03:52:54;;;;;;;109.15;43.75;;;2.90;93.20;;;;;;5020740;28;20053;-46
2021/03/02 03:55:25;;;;;;;93.45;35.90;;;2.90;93.20;;;;;;5036624;28;20105;-45
2021/03/02 03:57:51;;;;;;;85.82;38.97;;;2.90;93.20;;;;;;5036655;28;20733;-47
2021/03/02 04:00:18;;;;;;;115.85;46.13;;;2.90;93.40;;;;;;5039955;28;20048;-46
2021/03/02 04:02:44;;;;;;;97.40;42.08;;;2.90;93.50;;;;;;5047640;28;20048;-43
2021/03/02 04:05:12;;;;;;;96.22;38.70;;;2.90;93.40;;;;;;5040329;28;20528;-48
2021/03/02 04:07:38;;;;;;;103.30;40.22;;;2.90;93.30;;;;;;4998716;28;20116;-44
2021/03/02 04:10:06;;;;;;;111.95;44.13;;;2.90;93.20;;;;;;5034700;28;20040;-50
2021/03/02 04:12:38;;;;;;;143.18;43.25;;;2.90;93.20;;;;;;5053234;28;20053;-52
2021/03/02 04:15:09;;;;;;;100.80;41.33;;;2.90;93.10;;;;;;5047356;28;20032;-51
2021/03/02 04:17:35;;;;;;;119.45;38.25;;;2.90;93.20;;;;;;5048184;28;20052;-46
2021/03/02 04:20:03;;;;;;;116.82;41.10;;;2.90;93.20;;;;;;5049406;28;20787;-48
2021/03/02 04:22:34;;;;;;;94.10;40.03;;;2.90;93.40;;;;;;5052552;28;20025;-46
2021/03/02 04:24:59;;;;;;;76.30;35.22;;;2.90;93.30;;;;;;5047713;28;20051;-46
2021/03/02 04:27:25;;;;;;;88.13;35.03;;;3.00;93.20;;;;;;5053142;28;20049;-47
2021/03/02 04:29:51;;;;;;;98.85;37.17;;;2.90;93.20;;;;;;5045411;28;20044;-46
2021/03/02 04:32:17;;;;;;;119.43;41.72;;;2.90;93.20;;;;;;5050813;28;20052;-49
2021/03/02 04:34:43;;;;;;;108.93;42.30;;;3.00;93.40;;;;;;5048082;28;20493;-47
2021/03/02 04:37:08;;;;;;;103.18;37.75;;;2.90;93.30;;;;;;5046641;28;20053;-47
2021/03/02 04:39:34;;;;;;;87.57;35.28;;;2.90;93.20;;;;;;5046445;28;20045;-46
2021/03/02 04:42:00;;;;;;;110.53;42.03;;;2.90;93.30;;;;;;5030760;28;20053;-46
2021/03/02 04:44:26;;;;;;;83.47;33.08;;;2.80;93.40;;;;;;5050775;28;20044;-45
2021/03/02 04:46:51;;;;;;;98.97;41.55;;;2.80;93.40;;;;;;5046283;28;20119;-47
2021/03/02 04:49:17;;;;;;;121.70;43.35;;;2.90;93.50;;;;;;5046201;28;20546;-47
2021/03/02 04:51:43;;;;;;;119.57;41.30;;;2.80;93.40;;;;;;5045468;28;20049;-48
2021/03/02 04:54:09;;;;;;;99.03;39.42;;;2.90;93.50;;;;;;5045493;28;20092;-49
2021/03/02 04:56:34;;;;;;;107.57;41.42;;;2.90;93.40;;;;;;5045135;28;20059;-47
2021/03/02 04:59:00;;;;;;;101.93;36.10;;;2.80;93.40;;;;;;5052450;28;20040;-45
2021/03/02 05:01:27;;;;;;;142.13;39.47;;;2.80;93.50;;;;;;5044636;28;20037;-48
2021/03/02 05:03:52;;;;;;;117.28;42.92;;;2.80;93.60;;;;;;5047606;28;20048;-44
2021/03/02 05:06:18;;;;;;;122.32;43.13;;;2.80;93.40;;;;;;5048727;28;20043;-44
2021/03/02 05:08:44;;;;;;;105.78;42.97;;;2.80;93.50;;;;;;5034111;28;20061;-47
2021/03/02 05:11:10;;;;;;;107.85;38.63;;;2.80;93.50;;;;;;5044426;28;20087;-48
2021/03/02 05:13:35;;;;;;;110.80;42.03;;;2.80;93.40;;;;;;5045105;28;20083;-43
2021/03/02 05:16:01;;;;;;;98.40;42.25;;;2.80;93.60;;;;;;5045975;28;20044;-46
2021/03/02 05:18:27;;;;;;;141.35;44.05;;;2.80;93.50;;;;;;5049134;28;20052;-46
2021/03/02 05:20:54;;;;;;;102.55;40.17;;;2.80;93.40;;;;;;5047209;28;20064;-43
2021/03/02 05:23:19;;;;;;;100.90;42.90;;;2.90;93.40;;;;;;5050534;28;20075;-44
2021/03/02 05:25:45;;;;;;;120.53;46.45;;;2.90;93.40;;;;;;5028611;28;20060;-44
2021/03/02 05:28:11;;;;;;;105.20;40.15;;;2.90;93.40;;;;;;5024025;28;20060;-45
2021/03/02 05:30:37;;;;;;;99.43;43.40;;;2.90;93.40;;;;;;5043208;28;20041;-45
2021/03/02 05:33:03;;;;;;;104.13;40.10;;;2.90;93.40;;;;;;5044367;28;20683;-43
2021/03/02 05:35:28;;;;;;;94.10;36.55;;;2.90;93.30;;;;;;5044766;28;20060;-47
2021/03/02 05:37:55;;;;;;;78.32;32.78;;;2.80;93.40;;;;;;5060544;28;20045;-42
2021/03/02 05:40:20;;;;;;;115.25;44.17;;;2.80;93.20;;;;;;5037642;28;20053;-45
2021/03/02 05:42:46;;;;;;;93.55;41.05;;;2.80;93.30;;;;;;5048544;28;20059;-47
2021/03/02 05:45:13;;;;;;;106.43;43.20;;;2.80;93.30;;;;;;5049328;28;20053;-46
2021/03/02 05:47:40;;;;;;;109.85;42.58;;;2.80;93.30;;;;;;5050667;28;20041;-44
2021/03/02 05:50:07;;;;;;;125.40;41.60;;;2.90;93.40;;;;;;5051883;28;20049;-44
2021/03/02 05:52:33;;;;;;;103.20;38.42;;;2.80;93.30;;;;;;5039913;28;20122;-43
2021/03/02 05:55:02;;;;;;;115.38;42.63;;;2.80;93.40;;;;;;5044652;28;20070;-45
2021/03/02 05:57:33;;;;;;;104.95;38.30;;;2.80;93.40;;;;;;5043352;28;20505;-43
2021/03/02 06:00:00;;;;;;;98.88;42.65;;;2.80;93.40;;;;;;5050028;28;20045;-45
2021/03/02 06:02:26;;;;;;;92.18;37.20;;;2.80;93.40;;;;;;5037231;28;20040;-42
2021/03/02 06:04:52;;;;;;;77.22;31.77;;;2.70;93.30;;;;;;5030015;28;20126;-44
2021/03/02 06:07:18;;;;;;;90.85;39.38;;;2.80;93.40;;;;;;5047350;28;20059;-46
2021/03/02 06:09:44;;;;;;;98.72;40.70;;;2.70;93.30;;;;;;5046827;28;20508;-43
2021/03/02 06:12:11;;;;;;;82.55;33.60;;;2.70;93.30;;;;;;5036953;28;20037;-40
2021/03/02 06:14:37;;;;;;;80.38;36.58;;;2.80;93.40;;;;;;5043409;28;20119;-40
2021/03/02 06:17:04;;;;;;;73.40;31.38;;;2.90;93.30;;;;;;5042011;28;20055;-40
2021/03/02 06:19:46;;;;;;;77.13;36.17;;;3.00;93.20;;;;;;5040895;28;20435;-40
2021/03/02 06:22:31;;;;;;;82.63;34.53;;;3.20;93.10;;;;;;5041846;28;20057;-39
2021/03/02 06:24:58;;;;;;;70.57;35.25;;;3.10;92.60;;;;;;5042957;28;20911;-39
2021/03/02 06:27:24;;;;;;;72.95;35.67;;;3.20;92.50;;;;;;5045886;28;20098;-39
2021/03/02 06:30:12;;;;;;;73.53;34.72;;;3.20;92.30;;;;;;5020997;28;20057;-38
2021/03/02 06:32:40;;;;;;;79.05;34.90;;;3.10;92.20;;;;;;5035539;28;20115;-39
2021/03/02 06:35:08;;;;;;;69.25;34.42;;;3.10;92.20;;;;;;5047376;28;20048;-38
2021/03/02 06:37:45;;;;;;;86.38;37.45;;;3.10;92.40;;;;;;5034787;28;20052;-38
2021/03/02 06:40:13;;;;;;;88.80;31.42;;;3.10;92.30;;;;;;5029442;28;20053;-37
2021/03/02 06:42:41;;;;;;;77.18;35.38;;;3.10;92.20;;;;;;5040447;28;20558;-38
2021/03/02 06:45:09;;;;;;;67.82;31.58;;;3.10;92.60;;;;;;5048092;28;20104;-37
2021/03/02 06:47:41;;;;;;;67.85;33.00;;;3.20;92.30;;;;;;5046684;28;20041;-38
2021/03/02 06:50:13;;;;;;;79.30;36.33;;;3.20;92.20;;;;;;5044400;28;20453;-38
2021/03/02 06:52:41;;;;;;;101.78;40.33;;;3.20;92.20;;;;;;5049858;28;20045;-42
2021/03/02 06:55:27;;;;;;;160.75;73.35;;;3.20;92.20;;;;;;5052162;28;20068;-41
2021/03/02 06:58:19;;;;;;;96.32;47.95;;;3.20;92.10;;;;;;5057725;28;20045;-43
2021/03/02 07:00:56;;;;;;;101.03;35.33;;;3.20;92.30;;;;;;5045124;28;20071;-41
2021/03/02 07:03:34;;;;;;;71.15;28.73;;;3.20;92.20;;;;;;5028212;28;20049;-40
2021/03/02 07:06:03;;;;;;;74.10;37.85;;;3.20;92.20;;;;;;5058713;28;20140;-39
2021/03/02 07:08:33;;;;;;;70.32;32.95;;;3.20;92.30;;;;;;5045348;28;20045;-38
2021/03/02 07:11:00;;;;;;;78.32;34.25;;;3.20;92.10;;;;;;5053445;28;20041;-41
2021/03/02 07:13:30;;;;;;;86.82;28.77;;;3.20;92.00;;;;;;5019773;28;20057;-39
2021/03/02 07:15:56;;;;;;;112.53;59.85;;;3.20;92.00;;;;;;5029980;28;20049;-43
2021/03/02 07:18:24;;;;;;;94.07;45.25;;;3.20;92.10;;;;;;5046166;28;20870;-43
2021/03/02 07:20:50;;;;;;;88.35;40.25;;;3.20;92.00;;;;;;5046841;28;20045;-44
2021/03/02 07:23:19;;;;;;;71.65;35.97;;;3.10;92.00;;;;;;5046927;28;20779;-41
2021/03/02 07:25:47;;;;;;;66.53;32.15;;;3.20;92.20;;;;;;5052034;28;20563;-42
2021/03/02 07:28:16;;;;;;;66.43;35.72;;;3.20;92.10;;;;;;5045449;28;20151;-45
2021/03/02 07:30:45;;;;;;;73.78;33.83;;;3.20;92.20;;;;;;5037212;28;20086;-43
2021/03/02 07:33:11;;;;;;;68.25;33.88;;;3.10;92.00;;;;;;5045507;28;20053;-41
2021/03/02 07:35:37;;;;;;;69.25;34.58;;;3.20;92.30;;;;;;5049443;28;20115;-41
2021/03/02 07:38:21;;;;;;;87.00;30.92;;;3.30;92.30;;;;;;5043030;28;20091;-43
2021/03/02 07:40:54;;;;;;;93.63;36.60;;;3.30;92.00;;;;;;5044734;28;20053;-40
2021/03/02 07:43:28;;;;;;;93.63;39.42;;;3.30;92.10;;;;;;5043720;28;20045;-42
2021/03/02 07:45:55;;;;;;;72.00;39.03;;;3.40;92.30;;;;;;5045430;28;20048;-45
2021/03/02 07:48:38;;;;;;;73.03;34.13;;;3.60;92.30;;;;;;5029679;28;20075;-42
2021/03/02 07:51:17;;;;;;;74.93;38.63;;;3.60;91.80;;;;;;5049070;28;20485;-47
2021/03/02 07:53:44;;;;;;;57.45;33.20;;;3.60;91.80;;;;;;5042079;28;20049;-44
2021/03/02 07:56:14;;;;;;;60.80;32.10;;;3.70;91.80;;;;;;5045595;28;20053;-42
2021/03/02 07:58:40;;;;;;;58.47;32.75;;;3.80;91.70;;;;;;5043906;28;20064;-43
2021/03/02 08:01:22;;;;;;;50.90;31.05;;;3.80;91.50;;;;;;5047282;28;20049;-45
2021/03/02 08:03:49;;;;;;;51.00;31.20;;;4.00;91.30;;;;;;5036077;28;20049;-43
2021/03/02 08:06:24;;;;;;;45.03;28.52;;;4.10;90.90;;;;;;5048802;28;20041;-44
2021/03/02 08:08:51;;;;;;;50.80;30.23;;;4.30;90.80;;;;;;5044062;28;20413;-41
2021/03/02 08:11:36;;;;;;;51.42;30.80;;;4.30;90.60;;;;;;5046483;28;20044;-43
2021/03/02 08:14:17;;;;;;;107.13;65.28;;;4.40;90.40;;;;;;5043535;28;20143;-41
2021/03/02 08:16:56;;;;;;;82.00;46.67;;;4.30;90.60;;;;;;5046946;28;20048;-43
2021/03/02 08:19:43;;;;;;;46.95;29.35;;;4.40;90.50;;;;;;5015224;28;20050;-44
2021/03/02 08:22:18;;;;;;;51.95;31.88;;;4.40;90.50;;;;;;5035570;28;20060;-42
2021/03/02 08:24:58;;;;;;;46.65;30.27;;;4.30;90.50;;;;;;5039217;28;20109;-43
2021/03/02 08:27:42;;;;;;;54.75;33.88;;;4.30;90.60;;;;;;5049920;28;20107;-43
2021/03/02 08:30:10;;;;;;;49.30;30.13;;;4.40;90.50;;;;;;5030806;28;20060;-45
2021/03/02 08:32:38;;;;;;;51.10;29.55;;;4.40;90.60;;;;;;5044126;28;20152;-42
2021/03/02 08:35:10;;;;;;;46.83;30.00;;;4.40;90.40;;;;;;5034873;28;20053;-40
2021/03/02 08:37:52;;;;;;;55.83;35.63;;;4.30;90.40;;;;;;5027758;28;20049;-43
2021/03/02 08:40:40;;;;;;;48.80;28.45;;;4.50;90.30;;;;;;5045916;28;20467;-44
2021/03/02 08:43:24;;;;;;;47.30;28.88;;;4.60;89.60;;;;;;5040441;28;20049;-51
2021/03/02 08:45:51;;;;;;;42.42;27.98;;;4.60;90.00;;;;;;5040145;28;20548;-46
2021/03/02 08:48:17;;;;;;;49.97;31.25;;;4.60;90.00;;;;;;5045003;28;20163;-49
2021/03/02 08:50:44;;;;;;;125.72;86.95;;;4.80;90.10;;;;;;5028157;28;20468;-47
2021/03/02 08:53:30;;;;;;;65.75;43.63;;;4.80;90.00;;;;;;5025087;28;20056;-47
2021/03/02 08:55:57;;;;;;;45.63;29.58;;;4.80;89.90;;;;;;5043901;28;20090;-48
2021/03/02 08:58:43;;;;;;;58.78;39.40;;;4.80;89.80;;;;;;5049363;28;20566;-48
2021/03/02 09:01:14;;;;;;;42.30;27.90;;;5.00;89.90;;;;;;5050594;28;20436;-52
2021/03/02 09:03:45;;;;;;;46.75;31.00;;;5.00;89.40;;;;;;5048427;28;20127;-53
2021/03/02 09:06:16;;;;;;;44.42;30.67;;;5.00;89.00;;;;;;5041449;28;20041;-48
2021/03/02 09:09:00;;;;;;;48.70;31.45;;;5.20;88.70;;;;;;5044149;28;20590;-49
2021/03/02 09:11:30;;;;;;;46.22;27.73;;;5.30;88.20;;;;;;5044037;28;20099;-49
2021/03/02 09:14:15;;;;;;;40.75;27.55;;;5.30;88.50;;;;;;5042471;28;20056;-49
2021/03/02 09:16:51;;;;;;;38.47;27.95;;;5.30;86.70;;;;;;5043176;28;20102;-50
2021/03/02 09:19:18;;;;;;;47.33;29.05;;;5.40;87.90;;;;;;5043363;28;20049;-48
2021/03/02 09:21:52;;;;;;;40.33;28.02;;;5.40;87.60;;;;;;5050627;28;20068;-48
2021/03/02 09:24:20;;;;;;;107.63;75.57;;;5.50;87.30;;;;;;5026141;28;20049;-49
2021/03/02 09:26:55;;;;;;;44.25;29.58;;;5.60;87.10;;;;;;5044904;28;20049;-50
2021/03/02 09:29:22;;;;;;;57.72;39.28;;;5.50;86.60;;;;;;5046203;28;20045;-50
2021/03/02 09:31:50;;;;;;;42.38;29.85;;;5.50;86.70;;;;;;5045128;28;20178;-50
2021/03/02 09:34:17;;;;;;;36.67;25.27;;;5.60;87.20;;;;;;5046398;28;20440;-50
2021/03/02 09:36:43;;;;;;;43.28;30.30;;;5.60;86.80;;;;;;5043085;28;20129;-48
2021/03/02 09:43:04;;;;;;;34.58;27.27;;;5.60;86.30;;;;;;5005825;22;20125;-50
2021/03/02 09:45:30;;;;;;;248.05;192.73;;;5.60;86.30;;;;;;5063165;28;20559;-39
2021/03/02 09:48:02;;;;;;;77.00;55.40;;;5.70;86.80;;;;;;5062982;28;20392;-39
2021/03/02 09:50:38;;;;;;;;;;;5.80;86.40;;;;;;5067255;28;20040;-40
2021/03/02 09:53:14;;;;;;;53.72;38.05;;;5.90;85.80;;;;;;5054191;28;19947;-40
2021/03/02 09:55:42;;;;;;;71.68;50.95;;;6.00;85.90;;;;;;5066123;28;20408;-39
2021/03/02 09:58:13;;;;;;;43.35;32.25;;;6.10;85.40;;;;;;5002745;28;20982;-39
2021/03/02 10:00:45;;;;;;;41.13;30.05;;;6.10;85.20;;;;;;5054131;28;20493;-39
2021/03/02 10:03:19;;;;;;;43.17;29.63;;;6.30;85.30;;;;;;5062222;28;20041;-39
2021/03/02 10:05:56;;;;;;;38.90;27.48;;;6.30;84.80;;;;;;5063999;28;20047;-39
2021/03/02 10:08:32;;;;;;;36.75;26.05;;;6.50;85.20;;;;;;5054649;28;20040;-40
2021/03/02 10:11:12;;;;;;;36.20;25.63;;;6.50;84.40;;;;;;5080775;28;20051;-40
2021/03/02 10:13:48;;;;;;;33.70;25.35;;;6.50;83.70;;;;;;5061605;28;20198;-39
2021/03/02 10:16:30;;;;;;;35.05;26.10;;;6.70;84.40;;;;;;5048081;28;20052;-39
2021/03/02 10:19:03;;;;;;;35.80;26.25;;;6.80;83.90;;;;;;5061036;28;20068;-40
2021/03/02 10:21:45;;;;;;;;;;;6.90;83.00;;;;;;5045332;28;20411;-40
2021/03/02 10:24:23;;;;;;;42.15;29.88;;;7.00;83.10;;;;;;5044699;28;20031;-39
2021/03/02 10:26:50;;;;;;;50.30;37.15;;;7.40;83.10;;;;;;5062506;28;20054;-40
2021/03/02 10:29:16;;;;;;;98.35;74.45;;;7.70;82.40;;;;;;5070719;28;20044;-40
2021/03/02 10:31:42;;;;;;;52.15;40.50;;;7.80;80.50;;;;;;5036653;28;20051;-41
2021/03/02 10:34:10;;;;;;;59.58;44.75;;;8.00;79.70;;;;;;5045808;28;20053;-40
2021/03/02 10:36:41;;;;;;;50.95;39.00;;;8.10;79.30;;;;;;5072471;28;20122;-40
2021/03/02 10:39:12;;;;;;;41.10;32.28;;;8.20;78.40;;;;;;5070310;28;20146;-40
2021/03/02 10:41:39;;;;;;;39.83;31.30;;;8.50;78.90;;;;;;5069097;28;20124;-42
2021/03/02 10:44:06;;;;;;;34.90;28.08;;;8.90;77.70;;;;;;5050065;28;20080;-52
2021/03/02 10:46:32;;;;;;;44.03;35.53;;;8.70;76.90;;;;;;5071171;28;20374;-51
2021/03/02 10:48:59;;;;;;;50.60;40.80;;;9.00;78.00;;;;;;5064665;28;20075;-54
2021/03/02 10:51:26;;;;;;;48.55;39.15;;;9.40;76.80;;;;;;5084271;28;20037;-56
2021/03/02 10:53:52;;;;;;;33.97;27.85;;;9.60;75.50;;;;;;5052310;28;20052;-51
2021/03/02 10:56:19;;;;;;;34.67;30.17;;;10.00;73.60;;;;;;5070596;28;20044;-55
2021/03/02 10:58:46;;;;;;;39.10;32.50;;;10.40;72.50;;;;;;5066928;28;20044;-55
2021/03/02 11:01:12;;;;;;;46.55;39.30;;;10.70;71.90;;;;;;5050602;28;20036;-51
2021/03/02 11:03:39;;;;;;;29.55;24.77;;;11.40;70.60;;;;;;5081290;28;20415;-52
2021/03/02 11:06:05;;;;;;;27.85;22.98;;;12.10;68.10;;;;;;5047564;28;20559;-55
2021/03/02 11:08:31;;;;;;;27.45;24.42;;;13.10;66.70;;;;;;5062130;28;20509;-55
2021/03/02 11:10:56;;;;;;;31.83;28.38;;;13.40;63.60;;;;;;5067570;28;20045;-53
2021/03/02 11:13:22;;;;;;;25.17;22.65;;;13.50;62.20;;;;;;5067962;28;20048;-51
2021/03/02 11:15:48;;;;;;;27.40;24.33;;;13.80;61.60;;;;;;5077815;28;20055;-55
2021/03/02 11:18:14;;;;;;;33.15;29.63;;;13.60;59.90;;;;;;5082607;28;20098;-55
2021/03/02 11:20:44;;;;;;;32.38;28.95;;;14.00;59.70;;;;;;5084626;28;20059;-52
2021/03/02 11:23:11;;;;;;;27.92;25.02;;;14.50;60.40;;;;;;5078549;28;20052;-55
2021/03/02 11:25:38;;;;;;;35.13;30.27;;;14.50;59.30;;;;;;5075893;28;20141;-53
2021/03/02 11:28:06;;;;;;;27.52;24.63;;;15.10;57.30;;;;;;5074723;28;20040;-52
2021/03/02 11:30:32;;;;;;;25.38;22.67;;;15.00;56.50;;;;;;5078878;28;20046;-54
2021/03/02 11:32:58;;;;;;;23.85;21.25;;;15.30;56.60;;;;;;5069990;28;20043;-51
2021/03/02 11:35:24;;;;;;;30.83;27.38;;;15.80;55.80;;;;;;5081049;28;20052;-52
2021/03/02 11:37:50;;;;;;;27.77;24.92;;;16.60;54.50;;;;;;5087988;28;20516;-49
2021/03/02 11:40:18;;;;;;;25.63;22.80;;;16.40;52.80;;;;;;5053047;28;20056;-52
2021/03/02 11:42:44;;;;;;;36.13;32.22;;;16.40;54.60;;;;;;5066860;28;20052;-47
2021/03/02 11:45:11;;;;;;;37.33;33.55;;;16.20;54.40;;;;;;5055671;28;20037;-51
2021/03/02 11:47:38;;;;;;;33.17;29.73;;;16.30;52.50;;;;;;5057940;28;20144;-48
2021/03/02 11:50:06;;;;;;;25.55;22.88;;;16.70;51.80;;;;;;5050676;28;20681;-47
2021/03/02 11:52:32;;;;;;;33.75;30.35;;;17.00;51.40;;;;;;5050087;28;20100;-52
2021/03/02 11:54:58;;;;;;;28.75;25.85;;;16.90;52.30;;;;;;5051669;28;20068;-49
2021/03/02 11:57:24;;;;;;;41.63;37.25;;;17.00;50.90;;;;;;5071917;28;20036;-51
2021/03/02 11:59:49;;;;;;;34.95;31.48;;;17.50;50.70;;;;;;5075283;28;20044;-50
2021/03/02 12:02:50;;;;;;;30.52;27.52;;;17.10;51.20;;;;;;5073208;28;20059;-49
2021/03/02 12:05:18;;;;;;;28.88;25.85;;;16.80;47.80;;;;;;5049831;28;20050;-52
2021/03/02 12:07:45;;;;;;;22.58;20.38;;;17.90;49.10;;;;;;5082503;28;20055;-51
2021/03/02 12:10:12;;;;;;;28.10;25.27;;;18.20;48.90;;;;;;5077328;28;20040;-55
2021/03/02 12:12:40;;;;;;;21.65;19.48;;;18.30;46.90;;;;;;5086508;28;20050;-50
2021/03/02 12:15:07;;;;;;;26.10;23.42;;;18.80;45.60;;;;;;5059388;28;20054;-51
2021/03/02 12:17:34;;;;;;;24.50;22.05;;;18.90;44.90;;;;;;5065077;28;20052;-47
2021/03/02 12:20:00;;;;;;;27.17;24.60;;;19.10;43.90;;;;;;5058497;28;20059;-49
2021/03/02 12:22:26;;;;;;;27.00;24.20;;;18.80;45.20;;;;;;5075468;28;20123;-49
2021/03/02 12:24:51;;;;;;;24.85;22.45;;;18.80;45.30;;;;;;5063763;28;20052;-46
2021/03/02 12:27:23;;;;;;;24.70;22.30;;;19.10;45.20;;;;;;5044157;28;20053;-50
2021/03/02 12:29:50;;;;;;;26.20;23.60;;;19.30;43.90;;;;;;5057742;28;20070;-51
2021/03/02 12:32:16;;;;;;;27.27;24.67;;;19.40;44.30;;;;;;5077365;28;20040;-49
2021/03/02 12:34:41;;;;;;;22.83;20.60;;;19.50;43.60;;;;;;5067847;28;20044;-50
2021/03/02 12:37:07;;;;;;;32.75;29.42;;;19.50;43.40;;;;;;5067536;28;20044;-48
2021/03/02 12:39:33;;;;;;;26.35;23.63;;;20.40;42.70;;;;;;5070651;28;20043;-51
2021/03/02 12:41:59;;;;;;;23.70;21.50;;;20.40;42.20;;;;;;5073086;28;20048;-50
2021/03/02 12:44:25;;;;;;;21.52;19.63;;;19.90;42.70;;;;;;5066667;28;20507;-51
2021/03/02 12:46:51;;;;;;;21.90;19.73;;;20.00;42.90;;;;;;5067124;28;20067;-49
2021/03/02 12:49:17;;;;;;;22.88;20.73;;;20.40;42.20;;;;;;5047895;28;20052;-47